Latest Weather Observations for Kanagulk

IDV60801

Issued at 5:31 pm EST Monday 6 July 2015 (issued every 30 minutes, with the page automatically refreshed every 10 minutes)

About weather observations | Map of weather stations | Latest weather observations for VIC | Other Formats
Station Details ID: 079097 Name: KANAGULK Lat: -37.12 Lon: 141.80 Height: 188.8 m
Data from the previous 72 hours. | See also: Recent months at Kanagulk
Date/Time
EST
Temp
°C
App
Temp
°C
Dew
Point
Rel
Hum
%
Delta-T
°C
Wind Press
QNH
hPa
Press
MSL
hPa
Rain
since 9 am
mm
Dir
 
Spd
km/h
Gust
km/h
Spd
kts
Gust
kts
06/05:30pm 9.4 7.8 8.2 92 0.6 WNW 6 9 3 5 1014.9 1015.2 1.6
06/05:00pm 10.1 8.6 8.4 89 0.8 NW 6 9 3 5 1014.7 1015.0 1.6
06/04:30pm 10.2 8.7 8.5 89 0.8 WNW 6 7 3 4 1014.6 1014.9 1.6
06/04:00pm 11.9 9.2 8.9 82 1.5 WNW 13 24 7 13 1014.4 1014.7 1.2
06/03:30pm 12.8 11.4 9.6 81 1.6 W 7 17 4 9 1013.8 1014.1 1.2
06/03:00pm 13.8 12.9 10.6 81 1.7 WNW 6 13 3 7 1013.6 1013.9 1.0
06/02:30pm 13.2 12.5 11.4 89 1.0 WNW 6 11 3 6 1013.5 1013.8 1.0
06/02:00pm 12.1 10.7 9.5 84 1.3 WSW 7 13 4 7 1013.6 1013.9 0.4
06/01:30pm 12.7 10.6 8.4 75 2.2 WNW 9 13 5 7 1013.8 1014.1 0.0
06/01:00pm 14.7 12.5 9.3 70 2.8 NNW 11 19 6 10 1014.1 1014.4 0.0
06/12:30pm 12.9 10.9 8.6 75 2.2 NW 9 15 5 8 1014.4 1014.7 0.0
06/12:00pm 11.4 9.3 8.3 81 1.5 N 9 13 5 7 1014.8 1015.1 0.0
06/11:30am 11.3 9.3 8.7 84 1.3 N 9 11 5 6 1015.1 1015.4 0.0
06/11:00am 10.4 7.9 8.3 87 1.0 N 11 15 6 8 1015.3 1015.6 0.0
06/10:30am 9.5 7.4 8.1 91 0.7 NNE 9 13 5 7 1015.1 1015.4 0.0
06/10:00am 9.1 5.8 7.9 92 0.6 NNE 15 17 8 9 1015.0 1015.3 0.0
06/09:30am 8.0 4.9 7.4 96 0.3 NNE 13 17 7 9 1014.9 1015.2 0.0
06/09:00am 7.9 5.3 7.6 98 0.1 NNE 11 15 6 8 1014.9 1015.2 0.2
06/08:30am 7.0 4.5 6.6 97 0.2 NNE 9 13 5 7 1014.6 1014.9 0.2
06/08:00am 7.3 4.8 6.6 95 0.3 NNE 9 13 5 7 1014.4 1014.7 0.2
06/07:30am 7.2 3.5 6.5 95 0.3 NNE 15 20 8 11 1014.1 1014.4 0.2
06/07:00am 7.2 3.8 6.0 92 0.5 NNE 13 15 7 8 1014.2 1014.5 0.0
06/06:30am 7.7 4.7 5.8 88 0.9 N 11 15 6 8 1014.3 1014.6 0.0
06/06:00am 7.6 4.2 5.7 88 0.9 NNE 13 17 7 9 1014.2 1014.5 0.0
06/05:30am 7.7 5.0 5.7 87 0.9 NNE 9 13 5 7 1014.5 1014.8 0.0
06/05:00am 7.8 4.3 5.6 86 1.0 NNE 13 17 7 9 1014.6 1014.9 0.0
06/04:30am 7.9 4.5 5.7 86 1.0 NNE 13 19 7 10 1014.5 1014.8 0.0
06/04:00am 8.1 4.3 5.9 86 1.0 NNE 15 20 8 11 1014.6 1014.9 0.0
06/03:30am 8.0 4.2 5.8 86 1.0 NNE 15 17 8 9 1014.8 1015.1 0.0
06/03:00am 8.5 5.0 5.6 82 1.3 NNE 13 17 7 9 1015.1 1015.4 0.0
06/02:30am 8.8 5.2 5.2 78 1.6 NNE 13 19 7 10 1015.3 1015.6 0.0
06/02:00am 9.6 6.1 5.4 75 1.9 N 13 19 7 10 1015.5 1015.8 0.0
06/01:30am 9.5 6.0 5.5 76 1.8 N 13 19 7 10 1015.6 1015.9 0.0
06/01:00am 9.3 5.9 5.7 78 1.7 N 13 19 7 10 1015.9 1016.2 0.0
06/12:30am 9.3 5.5 5.9 79 1.6 N 15 20 8 11 1016.1 1016.4 0.0
06/12:00am 9.5 6.1 6.0 79 1.6 NNE 13 17 7 9 1016.3 1016.6 0.0
 
Date/Time
EST
Temp
°C
App
Temp
°C
Dew
Point
Rel
Hum
%
Delta-T
°C
Wind Press
QNH
hPa
Press
MSL
hPa
Rain
since 9 am
mm
Dir
 
Spd
km/h
Gust
km/h
Spd
kts
Gust
kts
05/11:30pm 9.7 6.7 5.9 77 1.8 N 11 15 6 8 1016.4 1016.7 0.0
05/11:00pm 9.6 6.6 6.0 78 1.7 N 11 15 6 8 1016.4 1016.7 0.0
05/10:30pm 9.7 6.7 6.2 79 1.6 N 11 15 6 8 1016.4 1016.7 0.0
05/10:00pm 9.8 6.8 6.2 78 1.7 N 11 13 6 7 1016.6 1016.9 0.0
05/09:30pm 9.8 7.2 6.3 79 1.6 N 9 11 5 6 1016.7 1017.0 0.0
05/09:00pm 10.2 7.7 6.5 78 1.7 N 9 15 5 8 1016.8 1017.1 0.0
05/08:30pm 10.7 7.8 6.6 76 1.9 NNE 11 13 6 7 1016.6 1016.9 0.0
05/08:00pm 11.2 8.7 6.7 74 2.1 N 9 11 5 6 1016.7 1017.0 0.0
05/07:30pm 11.3 9.2 6.8 74 2.2 N 7 9 4 5 1016.7 1017.0 0.0
05/07:00pm 11.2 9.1 6.5 73 2.2 N 7 11 4 6 1016.7 1017.0 0.0
05/06:30pm 11.4 9.5 6.5 72 2.3 N 6 9 3 5 1016.6 1016.9 0.0
05/06:00pm 11.6 9.1 6.7 72 2.3 N 9 11 5 6 1016.6 1016.9 0.0
05/05:30pm 12.2 10.2 6.3 67 2.8 N 6 9 3 5 1016.4 1016.7 0.0
05/05:00pm 13.3 10.8 6.6 64 3.2 NNW 9 13 5 7 1016.4 1016.7 0.0
05/04:30pm 13.9 11.4 6.5 61 3.6 NNW 9 17 5 9 1016.5 1016.8 0.0
05/04:00pm 14.1 11.6 6.7 61 3.6 NNW 9 17 5 9 1016.6 1016.9 0.0
05/03:30pm 14.4 11.9 6.5 59 3.9 NNW 9 17 5 9 1016.7 1017.0 0.0
05/03:00pm 15.0 11.3 6.3 56 4.2 NW 15 22 8 12 1016.8 1017.1 0.0
05/02:30pm 14.9 10.8 6.0 55 4.3 NNW 17 26 9 14 1017.0 1017.3 0.0
05/02:00pm 14.8 11.2 6.6 58 4.0 NNW 15 24 8 13 1017.3 1017.7 0.0
05/01:30pm 14.4 11.1 6.3 58 3.9 NNW 13 24 7 13 1017.8 1018.2 0.0
05/01:00pm 15.3 11.8 7.3 59 4.0 NNW 15 28 8 15 1018.0 1018.4 0.0
05/12:30pm 14.4 11.6 7.0 61 3.6 NNW 11 22 6 12 1018.4 1018.8 0.0
05/12:00pm 13.6 10.3 6.2 61 3.6 NNW 13 24 7 13 1019.1 1019.4 0.0
05/11:30am 13.0 10.1 6.6 65 3.1 N 11 17 6 9 1019.7 1020.0 0.0
05/11:00am 11.7 8.8 6.6 71 2.4 N 11 17 6 9 1020.1 1020.4 0.0
05/10:30am 10.0 6.1 5.2 72 2.2 N 15 22 8 12 1020.1 1020.4 0.0
05/10:00am 8.7 5.1 4.9 77 1.7 N 13 20 7 11 1020.3 1020.6 0.0
05/09:30am 7.4 3.9 5.5 88 0.9 N 13 17 7 9 1020.3 1020.6 0.0
05/09:00am 5.4 1.8 5.0 97 0.2 NNE 13 15 7 8 1020.2 1020.5 0.0
05/08:30am 4.5 0.8 4.2 98 0.1 NNE 13 15 7 8 1020.2 1020.5 0.0
05/08:00am 4.3 0.5 4.0 98 0.1 NNE 13 17 7 9 1020.2 1020.5 0.0
05/07:30am 4.1 0.3 3.7 97 0.2 NNE 13 15 7 8 1020.2 1020.5 0.0
05/07:00am 4.7 1.4 4.3 97 0.2 NNE 11 15 6 8 1020.1 1020.4 0.0
05/06:30am 4.8 1.5 4.4 97 0.2 N 11 13 6 7 1019.9 1020.2 0.0
05/06:00am 4.9 1.2 4.5 97 0.2 NNE 13 15 7 8 1019.9 1020.2 0.0
05/05:30am 4.9 1.2 4.2 95 0.3 NNE 13 13 7 7 1019.9 1020.2 0.0
05/05:00am 5.2 2.2 4.0 92 0.5 NNE 9 11 5 6 1019.9 1020.2 0.0
05/04:30am 5.8 2.8 4.1 89 0.7 N 9 11 5 6 1019.9 1020.2 0.0
05/04:00am 6.8 4.3 4.8 87 0.9 N 7 9 4 5 1019.9 1020.2 0.0
05/03:30am 7.7 5.0 5.8 88 0.9 N 9 15 5 8 1020.1 1020.4 0.0
05/03:00am 7.7 5.2 6.5 92 0.6 N 9 13 5 7 1020.4 1020.7 0.0
05/02:30am 7.2 4.3 6.6 96 0.3 NNE 11 13 6 7 1020.5 1020.8 0.0
05/02:00am 7.2 4.8 6.9 98 0.1 NNE 9 13 5 7 1020.7 1021.0 0.0
05/01:30am 7.2 5.2 7.1 99 0.0 NNE 7 9 4 5 1020.8 1021.1 0.0
05/01:00am 7.3 6.3 7.2 99 0.0 N 2 6 1 3 1021.1 1021.4 0.0
05/12:30am 6.8 4.9 6.7 99 0.0 N 6 9 3 5 1021.2 1021.5 0.0
05/12:00am 5.7 3.0 5.4 98 0.1 N 9 11 5 6 1021.2 1021.5 0.0
 
Date/Time
EST
Temp
°C
App
Temp
°C
Dew
Point
Rel
Hum
%
Delta-T
°C
Wind Press
QNH
hPa
Press
MSL
hPa
Rain
since 9 am
mm
Dir
 
Spd
km/h
Gust
km/h
Spd
kts
Gust
kts
04/11:30pm 6.2 4.5 5.8 97 0.2 N 4 7 2 4 1021.4 1021.7 0.0
04/11:00pm 6.8 4.8 6.2 96 0.3 N 6 9 3 5 1021.4 1021.7 0.0
04/10:30pm 7.5 5.5 6.9 96 0.3 N 7 11 4 6 1021.3 1021.6 0.0
04/10:00pm 8.4 5.9 8.1 98 0.1 N 11 15 6 8 1021.4 1021.7 0.0
04/09:30pm 7.9 6.1 7.8 99 0.0 N 7 11 4 6 1021.6 1021.9 0.0
04/09:00pm 8.3 6.7 8.2 99 0.0 N 6 9 3 5 1021.7 1022.1 0.0
04/08:30pm 8.5 7.0 8.4 99 0.0 N 6 7 3 4 1021.8 1022.2 0.0
04/08:00pm 8.4 6.3 8.3 99 0.0 N 9 11 5 6 1021.8 1022.2 0.0
04/07:30pm 8.4 6.9 8.3 99 0.0 NNE 6 7 3 4 1021.9 1022.3 0.0
04/07:00pm 8.3 7.1 8.2 99 0.0 NNE 4 9 2 5 1021.8 1022.2 0.0
04/06:30pm 8.2 7.4 8.1 99 0.0 NE 2 4 1 2 1021.9 1022.3 0.0
04/06:00pm 8.4 6.9 8.3 99 0.0 ENE 6 7 3 4 1021.7 1022.1 0.0
04/05:30pm 8.6 8.3 8.5 99 0.0 CALM 0 6 0 3 1021.7 1022.1 0.0
04/05:00pm 8.7 7.1 8.6 99 0.0 ENE 7 9 4 5 1021.5 1021.8 0.0
04/04:30pm 8.9 8.3 8.8 99 0.0 E 2 9 1 5 1021.7 1022.1 0.0
04/04:00pm 9.0 7.6 8.9 99 0.0 ENE 6 9 3 5 1021.9 1022.3 0.0
04/03:30pm 9.0 8.7 8.5 97 0.2 CALM 0 0 0 0 1022.0 1022.4 0.0
04/03:00pm 9.1 8.8 8.5 96 0.3 CALM 0 0 0 0 1022.0 1022.4 0.0
04/02:30pm 9.0 7.9 8.5 97 0.2 NW 4 11 2 6 1022.0 1022.4 0.0
04/02:00pm 9.1 7.6 8.3 95 0.4 NNW 6 9 3 5 1022.2 1022.6 0.0
04/01:30pm 9.2 6.8 6.8 85 1.1 NNW 9 17 5 9 1022.5 1022.9 0.0
04/01:00pm 10.0 7.9 5.8 75 1.9 NNW 6 11 3 6 1022.8 1023.2 0.0
04/12:30pm 9.8 7.5 5.6 75 1.9 NNW 7 11 4 6 1023.2 1023.6 0.0
04/12:00pm 9.6 6.8 5.2 74 2.0 NNW 9 13 5 7 1023.5 1023.9 0.0
04/11:30am 9.2 6.9 5.8 79 1.6 N 7 13 4 7 1023.9 1024.3 0.0
04/11:00am 8.0 5.8 5.1 82 1.3 NNE 6 7 3 4 1024.3 1024.6 0.0
04/10:30am 7.8 5.1 5.4 85 1.1 NNE 9 11 5 6 1024.1 1024.5 0.0
04/10:00am 7.4 4.6 5.2 86 1.0 NNE 9 11 5 6 1024.0 1024.4 0.0
04/09:30am 6.7 3.9 5.3 91 0.6 NNE 9 11 5 6 1023.9 1024.3 0.0
04/09:00am 6.3 3.4 4.8 90 0.7 NE 9 13 5 7 1023.9 1024.3 0.0
04/08:30am 6.5 4.1 4.5 87 0.9 NE 6 11 3 6 1023.9 1024.3 0.0
04/08:00am 6.5 4.1 4.5 87 0.9 N 6 7 3 4 1023.7 1024.1 0.0
04/07:30am 6.4 4.0 4.4 87 0.9 NNE 6 7 3 4 1023.6 1024.0 0.0
04/07:00am 6.2 3.2 4.2 87 0.9 NNE 9 13 5 7 1023.3 1023.7 0.0
04/06:30am 6.3 3.3 4.3 87 0.9 NNE 9 13 5 7 1023.3 1023.7 0.0
04/06:00am 6.5 4.5 4.3 86 1.0 NE 4 7 2 4 1023.1 1023.5 0.0
04/05:30am 6.6 4.2 4.3 85 1.0 NNE 6 9 3 5 1023.0 1023.4 0.0
04/05:00am 6.7 4.9 3.7 81 1.3 N 2 7 1 4 1023.1 1023.5 0.0
04/04:30am 6.8 5.4 3.6 80 1.4 CALM 0 0 0 0 1023.1 1023.5 0.0
04/04:00am 6.5 5.1 3.8 83 1.2 CALM 0 6 0 3 1023.1 1023.5 0.0
04/03:30am 6.4 3.9 3.7 83 1.2 N 6 7 3 4 1023.2 1023.6 0.0
04/03:00am 6.5 5.1 3.8 83 1.2 CALM 0 0 0 0 1023.4 1023.8 0.0
04/02:30am 6.5 5.1 3.3 80 1.4 CALM 0 0 0 0 1023.8 1024.2 0.0
04/02:00am 6.5 3.9 3.1 79 1.4 N 6 7 3 4 1023.8 1024.2 0.0
04/01:30am 6.5 4.6 2.9 78 1.5 N 2 7 1 4 1024.0 1024.4 0.0
04/01:00am 6.5 3.9 3.1 79 1.4 N 6 7 3 4 1024.1 1024.5 0.0
04/12:30am 6.5 3.8 2.9 78 1.5 N 6 9 3 5 1024.5 1024.8 0.0
04/12:00am 6.6 3.8 2.3 74 1.8 N 6 7 3 4 1025.0 1025.3 0.0
 
Date/Time
EST
Temp
°C
App
Temp
°C
Dew
Point
Rel
Hum
%
Delta-T
°C
Wind Press
QNH
hPa
Press
MSL
hPa
Rain
since 9 am
mm
Dir
 
Spd
km/h
Gust
km/h
Spd
kts
Gust
kts
03/11:30pm 6.7 3.9 2.2 73 1.9 NNW 6 9 3 5 1025.2 1025.5 0.0
03/11:00pm 6.4 3.6 2.3 75 1.7 NNW 6 9 3 5 1025.2 1025.5 0.0
03/10:30pm 6.0 3.7 2.5 78 1.4 NNW 4 7 2 4 1025.3 1025.6 0.0
03/10:00pm 5.6 3.9 2.1 78 1.4 CALM 0 0 0 0 1025.4 1025.7 0.0
03/09:30pm 6.0 4.3 1.7 74 1.7 CALM 0 0 0 0 1025.5 1025.8 0.0
03/09:00pm 6.2 4.5 1.9 74 1.7 CALM 0 0 0 0 1025.5 1025.8 0.0
03/08:30pm 6.5 4.0 1.8 72 1.9 NNW 4 7 2 4 1025.4 1025.7 0.0
03/08:00pm 6.7 3.9 2.0 72 1.9 NNW 6 9 3 5 1025.7 1026.0 0.0
03/07:30pm 6.4 3.6 2.1 74 1.8 NNW 6 9 3 5 1025.6 1025.9 0.0
03/07:00pm 6.4 3.6 1.9 73 1.8 NNW 6 7 3 4 1025.5 1025.8 0.0
03/06:30pm 6.7 4.3 2.0 72 1.9 N 4 7 2 4 1025.4 1025.7 0.0
03/06:00pm 7.3 4.3 2.2 70 2.1 N 7 11 4 6 1025.5 1025.8 0.0

Other Formats:

Comma delimited format used in spreadsheet applications
http://www.bom.gov.au/fwo/IDV60801/IDV60801.95827.axf

JavaScript Object Notation format (JSON) in row-major order
http://www.bom.gov.au/fwo/IDV60801/IDV60801.95827.json